Time;durP1;ratioP1;P1;durP2;ratioP2;P2;SDS_P1;SDS_P2;PMS_P1;PMS_P2;Temp;Humidity;BMP_temperature;BMP_pressure;BME280_temperature;BME280_humidity;BME280_pressure;Samples;Min_cycle;Max_cycle;Signal;HPM_P1;HPM_P2
2023/12/26 00:02:08;;;;;;;;;9.00;8.00;;;;;14.32;100.00;98036.28;6212383;28;96231;-60
2023/12/26 00:05:11;;;;;;;;;9.00;8.60;;;;;14.32;100.00;98025.44;6212211;28;97461;-60
2023/12/26 00:08:14;;;;;;;;;8.00;7.25;;;;;14.38;100.00;98027.13;6212101;28;96700;-60
2023/12/26 00:11:19;;;;;;;;;6.00;6.00;;;;;14.41;100.00;98026.63;6212262;28;98273;-60
2023/12/26 00:14:22;;;;;;;;;8.00;7.00;;;;;14.43;100.00;98026.31;6212271;28;96524;-60
2023/12/26 00:17:25;;;;;;;;;7.00;7.00;;;;;14.46;100.00;98015.78;6207018;28;96649;-59
2023/12/26 00:20:28;;;;;;;;;8.00;8.00;;;;;14.51;100.00;98013.06;6215488;28;96664;-58
2023/12/26 00:23:31;;;;;;;;;9.00;9.00;;;;;14.53;100.00;98016.31;6211781;28;96528;-57
2023/12/26 00:26:39;;;;;;;;;8.50;7.50;;;;;14.54;100.00;98017.13;6228702;28;96352;-57
2023/12/26 00:29:43;;;;;;;;;8.75;8.75;;;;;14.60;100.00;98016.06;6228271;28;96316;-57
2023/12/26 00:32:46;;;;;;;;;6.00;6.00;;;;;14.60;100.00;98018.78;6229883;28;96264;-57
2023/12/26 00:35:49;;;;;;;;;7.00;7.00;;;;;14.60;100.00;98016.06;6195564;28;98458;-57
2023/12/26 00:38:53;;;;;;;;;8.00;7.20;;;;;14.57;100.00;98014.69;6229125;28;96356;-57
2023/12/26 00:41:58;;;;;;;;;7.25;7.00;;;;;14.59;100.00;98009.81;6230486;28;96257;-57
2023/12/26 00:45:01;;;;;;;;;6.00;6.00;;;;;14.63;100.00;98027.19;6211169;28;96340;-57
2023/12/26 00:48:05;;;;;;;;;8.00;7.00;;;;;14.67;100.00;98020.13;6220679;28;96263;-58
2023/12/26 00:51:09;;;;;;;;;6.00;5.00;;;;;14.64;100.00;98019.88;6202113;28;96818;-58
2023/12/26 00:54:12;;;;;;;;;4.80;4.00;;;;;14.68;100.00;98010.94;6218898;28;96374;-58
2023/12/26 00:57:16;;;;;;;;;3.50;3.50;;;;;14.73;100.00;98020.97;6228935;28;96276;-58
2023/12/26 01:00:20;;;;;;;;;3.00;3.00;;;;;14.69;100.00;98017.16;6230770;28;96413;-58
2023/12/26 01:03:23;;;;;;;;;5.00;4.00;;;;;14.72;100.00;98022.88;6231496;28;96685;-58
2023/12/26 01:06:26;;;;;;;;;4.00;4.00;;;;;14.74;100.00;98030.75;6232878;28;96308;-57
2023/12/26 01:09:29;;;;;;;;;1.60;1.60;;;;;14.78;100.00;98031.00;6213720;28;96810;-57
2023/12/26 01:12:34;;;;;;;;;3.00;3.00;;;;;14.86;100.00;98022.31;6223549;28;96302;-58
2023/12/26 01:15:37;;;;;;;;;3.00;3.00;;;;;14.94;100.00;98016.38;6234061;28;96343;-57
2023/12/26 01:18:40;;;;;;;;;2.00;2.00;;;;;14.95;100.00;98012.59;6214663;28;96739;-58
2023/12/26 01:21:44;;;;;;;;;2.00;2.00;;;;;15.02;100.00;98019.34;6215245;28;96340;-57
2023/12/26 01:24:48;;;;;;;;;6.00;5.00;;;;;15.01;100.00;98022.34;6232260;28;96328;-58
2023/12/26 01:27:53;;;;;;;;;4.25;4.00;;;;;15.01;100.00;98022.34;6234826;28;97033;-57
2023/12/26 01:30:56;;;;;;;;;3.60;3.60;;;;;15.03;100.00;98023.72;6218868;28;96530;-58
2023/12/26 01:33:59;;;;;;;;;2.80;2.80;;;;;15.01;100.00;98009.59;6234006;28;96380;-58
2023/12/26 01:37:02;;;;;;;;;4.00;4.00;;;;;15.08;100.00;98017.47;6234475;28;96270;-58
2023/12/26 01:40:06;;;;;;;;;2.60;2.60;;;;;15.04;100.00;98028.06;6233328;28;96655;-57
2023/12/26 01:43:11;;;;;;;;;2.60;2.60;;;;;15.09;100.00;98019.91;6234025;28;96288;-57
2023/12/26 01:46:14;;;;;;;;;3.00;3.00;;;;;15.09;100.00;98027.25;6234712;28;96314;-57
2023/12/26 01:49:17;;;;;;;;;3.25;3.25;;;;;15.06;100.00;98019.63;6215692;28;96336;-57
2023/12/26 01:52:21;;;;;;;;;2.00;2.00;;;;;15.02;100.00;98023.97;6232285;28;96792;-58
2023/12/26 01:55:25;;;;;;;;;4.50;3.50;;;;;15.03;100.00;98020.19;6239346;28;96153;-57
2023/12/26 01:58:29;;;;;;;;;3.00;3.00;;;;;15.04;100.00;98017.19;6225793;28;96388;-57
2023/12/26 02:01:33;;;;;;;;;2.00;2.00;;;;;15.08;100.00;98006.59;6232099;28;96339;-59
2023/12/26 02:04:38;;;;;;;;;2.25;2.25;;;;;15.08;100.00;98012.03;6212656;28;96381;-57
2023/12/26 02:07:41;;;;;;;;;2.20;2.20;;;;;15.10;100.00;97997.09;6233087;28;96280;-57
2023/12/26 02:10:44;;;;;;;;;4.00;4.00;;;;;15.09;100.00;97986.53;6233018;28;96393;-57
2023/12/26 02:13:49;;;;;;;;;4.00;4.00;;;;;15.08;100.00;97983.00;6233476;28;96396;-57
2023/12/26 02:16:54;;;;;;;;;3.00;3.00;;;;;15.10;100.00;97982.72;6232392;28;96286;-57
2023/12/26 02:19:57;;;;;;;;;1.80;1.80;;;;;15.11;100.00;97984.34;6232634;28;96396;-57
2023/12/26 02:23:01;;;;;;;;;3.75;3.75;;;;;15.06;100.00;97979.72;6226662;28;96366;-58
2023/12/26 02:26:08;;;;;;;;;3.00;3.00;;;;;15.02;100.00;97978.66;6232730;28;96965;-57
2023/12/26 02:29:13;;;;;;;;;3.00;3.00;;;;;15.01;100.00;97978.91;6232906;28;96312;-57
2023/12/26 02:32:18;;;;;;;;;3.00;3.00;;;;;14.95;100.00;97967.28;6233077;28;96275;-57
2023/12/26 02:35:22;;;;;;;;;3.00;3.00;;;;;15.00;100.00;97972.66;6214956;28;96502;-57
2023/12/26 02:38:25;;;;;;;;;4.00;4.00;;;;;15.02;100.00;97972.41;6215353;28;96335;-57
2023/12/26 02:41:30;;;;;;;;;3.00;3.00;;;;;15.02;100.00;97969.69;6203024;28;96519;-60
2023/12/26 02:44:33;;;;;;;;;3.00;3.00;;;;;15.04;100.00;97976.50;6217865;28;96287;-60
2023/12/26 02:47:36;;;;;;;;;3.00;3.00;;;;;15.04;100.00;97972.97;6215384;28;96853;-60
2023/12/26 02:50:39;;;;;;;;;2.00;2.00;;;;;15.00;100.00;97967.22;6213761;28;96228;-60
2023/12/26 02:53:42;;;;;;;;;4.00;4.00;;;;;14.97;100.00;97962.38;6213595;28;96584;-60
2023/12/26 02:56:47;;;;;;;;;3.00;3.00;;;;;15.00;100.00;97947.44;6196882;28;96369;-60
2023/12/26 02:59:50;;;;;;;;;4.00;4.00;;;;;15.00;100.00;97952.88;6214879;28;96902;-60
2023/12/26 03:02:53;;;;;;;;;3.60;3.00;;;;;14.98;100.00;97953.13;6213859;28;97566;-60
2023/12/26 03:05:57;;;;;;;;;4.00;4.00;;;;;14.95;100.00;97942.03;6196516;28;96287;-60
2023/12/26 03:09:00;;;;;;;;;4.00;3.00;;;;;14.94;100.00;97935.78;6213945;28;96378;-60
2023/12/26 03:12:06;;;;;;;;;3.00;3.00;;;;;14.95;100.00;97939.31;6214620;28;96285;-60
2023/12/26 03:15:11;;;;;;;;;4.00;4.00;;;;;14.93;100.00;97925.19;6214484;28;96634;-60
2023/12/26 03:18:15;;;;;;;;;3.40;3.40;;;;;14.90;100.00;97928.47;6212936;28;96584;-59
2023/12/26 03:21:20;;;;;;;;;4.40;4.40;;;;;14.82;100.00;97924.38;6213330;28;96282;-60
2023/12/26 03:24:23;;;;;;;;;3.00;3.00;;;;;14.74;100.00;97930.34;6191332;28;96673;-60
2023/12/26 03:27:27;;;;;;;;;4.00;4.00;;;;;14.63;100.00;97934.16;6189200;28;96380;-60
2023/12/26 03:30:32;;;;;;;;;5.00;4.00;;;;;14.57;100.00;97940.66;6188218;28;96448;-59
2023/12/26 03:33:36;;;;;;;;;3.00;2.80;;;;;14.45;100.00;97926.53;6210502;28;96860;-60
2023/12/26 03:36:43;;;;;;;;;3.20;3.20;;;;;14.50;100.00;97934.69;6213633;28;96358;-60
2023/12/26 03:39:47;;;;;;;;;2.60;2.60;;;;;14.48;100.00;97926.81;6205308;28;96900;-60
2023/12/26 03:42:51;;;;;;;;;4.40;4.00;;;;;14.42;100.00;97924.34;6193195;28;96674;-60
2023/12/26 03:45:54;;;;;;;;;4.00;4.00;;;;;14.37;100.00;97927.09;6211826;28;98748;-60
2023/12/26 03:48:57;;;;;;;;;3.00;3.00;;;;;14.35;100.00;97921.06;6195854;28;96481;-60
2023/12/26 03:52:01;;;;;;;;;3.00;2.00;;;;;14.40;100.00;97918.41;6195652;28;96262;-61
2023/12/26 03:55:05;;;;;;;;;3.00;3.00;;;;;14.36;100.00;97912.72;6179521;28;98387;-61
2023/12/26 03:58:09;;;;;;;;;3.00;3.00;;;;;14.38;100.00;97905.09;6198023;28;96474;-61
2023/12/26 04:01:13;;;;;;;;;4.00;4.00;;;;;14.41;100.00;97901.88;6196393;28;96528;-61
2023/12/26 04:04:16;;;;;;;;;2.75;2.75;;;;;14.34;100.00;97868.75;6203518;28;97084;-61
2023/12/26 04:07:20;;;;;;;;;3.50;3.50;;;;;14.41;100.00;97880.19;6203934;28;96371;-61
2023/12/26 04:10:23;;;;;;;;;2.50;2.50;;;;;14.23;100.00;97843.53;6185701;28;96732;-60
2023/12/26 04:13:27;;;;;;;;;2.40;2.40;;;;;14.33;100.00;97856.28;6173546;28;96268;-61
2023/12/26 04:16:31;;;;;;;;;3.00;3.00;;;;;14.27;100.00;97851.91;6195511;28;96295;-61
2023/12/26 04:19:34;;;;;;;;;2.00;2.00;;;;;14.17;100.00;97844.59;6179225;28;96414;-61
2023/12/26 04:22:37;;;;;;;;;2.00;2.00;;;;;14.25;100.00;97867.66;6190934;28;96511;-60
2023/12/26 04:25:40;;;;;;;;;1.00;1.00;;;;;14.22;100.00;97877.13;6202846;28;96358;-60
2023/12/26 04:28:45;;;;;;;;;3.00;3.00;;;;;14.28;100.00;97872.53;6187372;28;96423;-60
2023/12/26 04:31:48;;;;;;;;;3.00;3.00;;;;;14.31;100.00;97861.97;6202425;28;96733;-61
2023/12/26 04:34:52;;;;;;;;;2.60;2.60;;;;;14.31;100.00;97863.88;6187085;28;96423;-61
2023/12/26 04:37:56;;;;;;;;;3.00;3.00;;;;;14.33;100.00;97857.09;6186994;28;96840;-61
2023/12/26 04:40:59;;;;;;;;;3.00;3.00;;;;;14.27;100.00;97860.06;6203964;28;96403;-61
2023/12/26 04:44:04;;;;;;;;;2.00;2.00;;;;;14.20;100.00;97849.50;6188371;28;96366;-61
2023/12/26 04:47:07;;;;;;;;;4.00;4.00;;;;;14.05;100.00;97835.94;6186372;28;96628;-61
2023/12/26 04:50:10;;;;;;;;;3.00;3.00;;;;;14.22;100.00;97847.31;6166638;28;96362;-60
2023/12/26 04:53:14;;;;;;;;;3.00;3.00;;;;;14.21;100.00;97843.00;6178588;28;96704;-61
2023/12/26 04:56:18;;;;;;;;;3.00;3.00;;;;;14.29;100.00;97845.16;6181969;28;96435;-61
2023/12/26 04:59:22;;;;;;;;;2.80;2.80;;;;;14.27;100.00;97835.66;6186718;28;96350;-61
2023/12/26 05:02:27;;;;;;;;;4.33;4.33;;;;;14.27;100.00;97822.91;6192696;28;96839;-60
2023/12/26 05:05:30;;;;;;;;;3.00;3.00;;;;;14.28;100.00;97813.72;6193436;28;96544;-60
2023/12/26 05:08:33;;;;;;;;;4.00;4.00;;;;;14.37;100.00;97816.72;6210044;28;96461;-60
2023/12/26 05:11:37;;;;;;;;;2.00;2.00;;;;;14.30;100.00;97813.44;6191524;28;96795;-60
2023/12/26 05:14:41;;;;;;;;;4.00;4.00;;;;;14.35;100.00;97810.72;6212252;28;96392;-60
2023/12/26 05:17:44;;;;;;;;;3.00;3.00;;;;;14.30;100.00;97803.41;6211471;28;96283;-60
2023/12/26 05:20:48;;;;;;;;;2.00;2.00;;;;;14.33;100.00;97810.19;6194580;28;96649;-60
2023/12/26 05:23:51;;;;;;;;;3.00;3.00;;;;;14.33;100.00;97813.72;6176056;28;96715;-60
2023/12/26 05:26:54;;;;;;;;;3.00;3.00;;;;;14.35;100.00;97799.06;6194212;28;97392;-60
2023/12/26 05:29:59;;;;;;;;;3.00;2.00;;;;;14.35;100.00;97790.94;6191491;28;96284;-60
2023/12/26 05:33:02;;;;;;;;;3.75;3.00;;;;;14.41;100.00;97789.88;6193249;28;96573;-60
2023/12/26 05:36:07;;;;;;;;;4.00;3.50;;;;;14.31;100.00;97783.38;6190695;28;96789;-60
2023/12/26 05:39:11;;;;;;;;;3.00;3.00;;;;;14.34;100.00;97773.84;6209057;28;96620;-60
2023/12/26 05:42:14;;;;;;;;;2.25;2.25;;;;;14.28;100.00;97774.94;6211343;28;96458;-60
2023/12/26 05:45:19;;;;;;;;;2.00;2.00;;;;;14.26;100.00;97774.41;6196188;28;97144;-60
2023/12/26 05:48:22;;;;;;;;;1.80;1.80;;;;;14.31;100.00;97764.38;6197918;28;96348;-60
2023/12/26 05:51:26;;;;;;;;;3.00;3.00;;;;;14.27;100.00;97762.47;6194861;28;96378;-60
2023/12/26 05:54:29;;;;;;;;;2.00;2.00;;;;;14.30;100.00;97760.03;6187813;28;96375;-59
2023/12/26 05:57:32;;;;;;;;;2.20;2.20;;;;;14.33;100.00;97756.78;6189156;28;96500;-60
2023/12/26 06:00:37;;;;;;;;;2.00;2.00;;;;;14.38;100.00;97749.75;6183666;28;96962;-60
2023/12/26 06:03:40;;;;;;;;;1.80;1.80;;;;;14.52;100.00;97750.81;6194850;28;97111;-60
2023/12/26 06:06:44;;;;;;;;;3.00;3.00;;;;;14.57;100.00;97748.88;6193523;28;97033;-60
2023/12/26 06:09:47;;;;;;;;;3.00;3.00;;;;;14.64;100.00;97738.56;6180939;28;97190;-60
2023/12/26 06:12:50;;;;;;;;;3.80;3.00;;;;;14.73;100.00;97739.63;6213857;28;96293;-57
2023/12/26 06:15:55;;;;;;;;;2.80;2.00;;;;;14.72;100.00;97740.72;6213585;28;97200;-57
2023/12/26 06:18:59;;;;;;;;;2.00;2.00;;;;;14.71;100.00;97720.09;6213280;28;96812;-57
2023/12/26 06:22:02;;;;;;;;;2.00;2.00;;;;;14.84;100.00;97740.41;6208497;28;96709;-57
2023/12/26 06:25:07;;;;;;;;;2.00;2.00;;;;;14.74;100.00;97719.56;6212162;28;97040;-57
2023/12/26 06:28:10;;;;;;;;;2.50;2.50;;;;;14.99;100.00;97731.41;6234794;28;96237;-57
2023/12/26 06:31:15;;;;;;;;;3.00;3.00;;;;;14.98;100.00;97746.06;6230927;28;96322;-57
2023/12/26 06:34:18;;;;;;;;;3.00;2.20;;;;;14.91;100.00;97740.91;6217699;28;96131;-57
2023/12/26 06:37:22;;;;;;;;;3.00;3.00;;;;;14.96;100.00;97740.09;6230346;28;96394;-57
2023/12/26 06:40:25;;;;;;;;;2.00;2.00;;;;;14.95;100.00;97744.72;6214023;28;96379;-57
2023/12/26 06:43:29;;;;;;;;;3.00;3.00;;;;;15.00;100.00;97741.19;6222178;28;96233;-57
2023/12/26 06:46:40;;;;;;;;;1.00;1.00;;;;;15.04;100.00;97737.63;6218926;28;96417;-57
2023/12/26 06:49:45;;;;;;;;;2.00;2.00;;;;;15.08;100.00;97727.03;6205133;28;96286;-57
2023/12/26 06:52:51;;;;;;;;;0.25;0.25;;;;;15.16;100.00;97748.97;6204151;28;96446;-57
2023/12/26 06:55:55;;;;;;;;;2.00;2.00;;;;;15.21;100.00;97747.31;6220533;28;96266;-57
2023/12/26 06:58:58;;;;;;;;;3.00;2.25;;;;;15.25;100.00;97745.69;6229306;28;96465;-58
2023/12/26 07:02:03;;;;;;;;;2.00;2.00;;;;;15.35;100.00;97749.13;6228112;28;96277;-57
2023/12/26 07:05:07;;;;;;;;;1.00;1.00;;;;;15.38;100.00;97751.31;6213177;28;96560;-56
2023/12/26 07:08:10;;;;;;;;;1.00;1.00;;;;;15.41;100.00;97758.88;6208746;28;96340;-57
2023/12/26 07:11:13;;;;;;;;;1.60;1.60;;;;;15.31;100.00;97737.22;6217793;28;96352;-57
2023/12/26 07:14:16;;;;;;;;;1.00;1.00;;;;;15.58;100.00;97769.44;6218554;28;96507;-57
2023/12/26 07:17:21;;;;;;;;;1.60;1.60;;;;;15.64;100.00;97773.72;6230039;28;96360;-58
2023/12/26 07:20:24;;;;;;;;;2.00;2.00;;;;;15.75;100.00;97788.88;6226023;28;96341;-60
2023/12/26 07:23:27;;;;;;;;;3.00;2.40;;;;;15.83;100.00;97792.91;6212779;28;96492;-60
2023/12/26 07:26:30;;;;;;;;;1.00;1.00;;;;;15.94;100.00;97792.53;6212987;28;99066;-60
2023/12/26 07:29:33;;;;;;;;;1.80;1.80;;;;;16.05;100.00;97785.13;6213568;28;96531;-60
2023/12/26 07:32:38;;;;;;;;;2.40;2.40;;;;;16.17;100.00;97793.75;6213854;28;96522;-60
2023/12/26 07:35:41;;;;;;;;;1.00;1.00;;;;;16.25;100.00;97797.75;6214120;28;96869;-60
2023/12/26 07:38:45;;;;;;;;;2.00;2.00;;;;;16.30;100.00;97803.97;6211137;28;97754;-60
2023/12/26 07:41:48;;;;;;;;;1.00;1.00;;;;;16.22;100.00;97784.72;6212837;28;96866;-60
2023/12/26 07:44:51;;;;;;;;;1.00;1.00;;;;;16.44;100.00;97821.25;6210094;28;96371;-60
2023/12/26 07:47:55;;;;;;;;;1.00;1.00;;;;;16.52;100.00;97819.81;6211102;28;96582;-60
2023/12/26 07:50:59;;;;;;;;;2.00;2.00;;;;;16.62;100.00;97827.09;6206795;28;96411;-60
2023/12/26 07:54:02;;;;;;;;;2.00;2.00;;;;;16.74;100.00;97828.34;6187733;28;96296;-60
2023/12/26 07:57:05;;;;;;;;;2.00;1.50;;;;;16.94;100.00;97827.34;6209155;28;96373;-60
2023/12/26 08:00:10;;;;;;;;;2.00;2.00;;;;;17.16;100.00;97840.44;6211930;28;96284;-60
2023/12/26 08:03:18;;;;;;;;;2.20;2.20;;;;;17.22;100.00;97847.44;6211896;28;96567;-60
2023/12/26 08:06:23;;;;;;;;;1.00;1.00;;;;;17.23;100.00;97847.16;6210823;28;96559;-60
2023/12/26 08:09:26;;;;;;;;;1.00;1.00;;;;;17.22;100.00;97852.91;6212086;28;96545;-60
2023/12/26 08:12:29;;;;;;;;;2.40;2.00;;;;;17.37;100.00;97843.72;6211775;28;96268;-60
2023/12/26 08:15:32;;;;;;;;;2.00;1.00;;;;;17.49;100.00;97846.88;6212514;28;97251;-60
2023/12/26 08:18:37;;;;;;;;;2.00;2.00;;;;;17.49;100.00;97858.59;6193761;28;96694;-60
2023/12/26 08:21:40;;;;;;;;;1.00;1.00;;;;;17.39;100.00;97855.97;6211577;28;96315;-60
2023/12/26 08:24:43;;;;;;;;;2.00;2.00;;;;;17.34;100.00;97856.03;6194360;28;96045;-60
2023/12/26 08:27:46;;;;;;;;;2.00;2.00;;;;;17.38;100.00;97856.25;6212248;28;96517;-60
2023/12/26 08:30:49;;;;;;;;;1.00;1.00;;;;;17.44;100.00;97860.56;6211606;28;96289;-57
2023/12/26 08:33:54;;;;;;;;;1.25;1.25;;;;;17.68;100.00;97867.63;6219932;28;96444;-58
2023/12/26 08:36:57;;;;;;;;;1.00;1.00;;;;;17.92;100.00;97874.97;6222198;28;96257;-57
2023/12/26 08:40:00;;;;;;;;;1.20;1.20;;;;;17.96;100.00;97890.44;6221433;28;96448;-58
2023/12/26 08:43:03;;;;;;;;;3.00;3.00;;;;;18.12;100.00;97891.84;6223077;28;96777;-58
2023/12/26 08:46:07;;;;;;;;;2.00;2.00;;;;;18.14;100.00;97883.34;6191754;28;98360;-57
2023/12/26 08:49:11;;;;;;;;;3.00;3.00;;;;;18.33;100.00;97880.63;6210120;28;96510;-57
2023/12/26 08:52:14;;;;;;;;;3.00;3.00;;;;;18.90;100.00;97902.13;6220103;28;96329;-58
2023/12/26 08:55:17;;;;;;;;;2.00;2.00;;;;;19.41;100.00;97898.44;6221254;28;96618;-58
2023/12/26 08:58:20;;;;;;;;;1.00;1.00;;;;;20.02;100.00;97891.78;6221381;28;96282;-57
2023/12/26 09:01:23;;;;;;;;;4.80;4.00;;;;;20.43;100.00;97900.69;6222209;28;96583;-57
2023/12/26 09:04:30;;;;;;;;;2.20;2.20;;;;;20.59;100.00;97901.97;6223812;28;96725;-58
2023/12/26 09:07:33;;;;;;;;;1.00;1.00;;;;;20.43;100.00;97891.69;6211782;28;96597;-58
2023/12/26 09:10:36;;;;;;;;;1.00;1.00;;;;;20.12;100.00;97900.56;6212163;28;97011;-58
2023/12/26 09:13:39;;;;;;;;;2.00;1.60;;;;;19.58;100.00;97898.69;6212947;28;96353;-58
2023/12/26 09:16:44;;;;;;;;;1.00;1.00;;;;;19.49;100.00;97880.59;6212224;28;96390;-58
2023/12/26 09:19:48;;;;;;;;;3.00;2.00;;;;;19.35;100.00;97886.00;6194321;28;96837;-58
2023/12/26 09:22:52;;;;;;;;;5.00;4.00;;;;;19.55;100.00;97882.09;6219496;28;96266;-58
2023/12/26 09:25:55;;;;;;;;;4.00;3.00;;;;;19.52;100.00;97878.03;6218040;28;96645;-58
2023/12/26 09:28:58;;;;;;;;;4.00;4.00;;;;;19.90;100.00;97886.81;6210078;28;96761;-58
2023/12/26 09:32:01;;;;;;;;;2.00;2.00;;;;;20.41;100.00;97867.38;6204870;28;98737;-59
2023/12/26 09:35:07;;;;;;;;;2.40;2.00;;;;;22.12;100.00;97887.75;6206283;28;97862;-58
2023/12/26 09:38:10;;;;;;;;;2.50;2.50;;;;;23.65;100.00;97885.91;6198925;28;96461;-59
2023/12/26 09:41:13;;;;;;;;;2.40;2.00;;;;;25.30;100.00;97898.13;6222069;28;96627;-61
2023/12/26 09:44:16;;;;;;;;;3.20;3.00;;;;;25.76;100.00;97890.59;6214770;28;96378;-62
2023/12/26 09:47:20;;;;;;;;;2.00;2.00;;;;;26.05;100.00;97890.38;6204516;28;96462;-61
2023/12/26 09:50:25;;;;;;;;;2.00;2.00;;;;;26.21;100.00;97901.53;6204641;28;96312;-61
2023/12/26 09:53:33;;;;;;;;;2.00;2.00;;;;;25.88;100.00;97905.25;6204396;28;96584;-61
2023/12/26 09:56:40;;;;;;;;;2.00;2.00;;;;;25.58;100.00;97906.59;6196980;28;98422;-61
2023/12/26 09:59:44;;;;;;;;;4.25;3.00;;;;;24.69;100.00;97908.09;6202526;28;96672;-61
2023/12/26 10:02:49;;;;;;;;;3.00;3.00;;;;;23.75;100.00;97895.75;6190533;28;97051;-61
2023/12/26 10:05:57;;;;;;;;;3.00;3.00;;;;;22.53;100.00;97906.53;6203977;28;96744;-61
2023/12/26 10:09:00;;;;;;;;;3.00;3.00;;;;;21.64;100.00;97902.28;6187093;28;96291;-61
2023/12/26 10:12:05;;;;;;;;;4.00;3.00;;;;;20.90;100.00;97903.97;6176391;28;97090;-61
2023/12/26 10:15:11;;;;;;;;;2.00;2.00;;;;;20.36;100.00;97900.34;6179390;28;96586;-61
2023/12/26 10:18:15;;;;;;;;;3.00;3.00;;;;;19.86;100.00;97904.97;6185821;28;96608;-61
2023/12/26 10:21:19;;;;;;;;;3.40;3.40;;;;;19.41;100.00;97899.25;6187061;28;97443;-61
2023/12/26 10:24:23;;;;;;;;;4.00;4.00;;;;;19.10;100.00;97890.03;6178009;28;97791;-61
2023/12/26 10:27:26;;;;;;;;;3.00;3.00;;;;;18.72;100.00;97910.34;6185972;28;97154;-58
2023/12/26 10:30:30;;;;;;;;;1.00;1.00;;;;;18.46;100.00;97923.56;6185556;28;96390;-58
2023/12/26 10:33:33;;;;;;;;;2.00;2.00;;;;;18.14;100.00;97925.09;6178593;28;96631;-58
2023/12/26 10:36:43;;;;;;;;;4.00;4.00;;;;;17.99;100.00;97935.38;6180426;28;97349;-58
2023/12/26 10:39:46;;;;;;;;;3.00;3.00;;;;;17.90;100.00;97923.50;6174947;28;96513;-61
2023/12/26 10:42:51;;;;;;;;;3.00;3.00;;;;;17.49;100.00;97923.97;6186029;28;97357;-60
2023/12/26 10:45:56;;;;;;;;;1.40;1.40;;;;;17.42;100.00;97934.41;6184195;28;98121;-60
2023/12/26 10:49:04;;;;;;;;;2.00;2.00;;;;;17.28;100.00;97936.19;6188564;28;96475;-60
2023/12/26 10:52:10;;;;;;;;;2.40;2.40;;;;;17.21;100.00;97939.25;6191816;28;96282;-58
2023/12/26 10:55:18;;;;;;;;;2.00;2.00;;;;;17.38;100.00;97935.28;6191980;28;96322;-57
2023/12/26 10:58:23;;;;;;;;;2.75;2.75;;;;;17.31;100.00;97935.59;6189194;28;96485;-58
2023/12/26 11:01:26;;;;;;;;;3.00;3.00;;;;;17.40;100.00;97939.31;6190774;28;96286;-57
2023/12/26 11:04:30;;;;;;;;;1.00;1.00;;;;;17.55;100.00;97941.06;6189468;28;96264;-57
2023/12/26 11:07:33;;;;;;;;;1.00;1.00;;;;;17.80;100.00;97953.63;6189279;28;96315;-58
2023/12/26 11:10:36;;;;;;;;;2.00;2.00;;;;;17.77;100.00;97946.84;6195650;28;96308;-58
2023/12/26 11:13:40;;;;;;;;;2.00;2.00;;;;;17.95;100.00;97953.44;6192013;28;96424;-58
2023/12/26 11:16:43;;;;;;;;;2.20;2.00;;;;;18.17;100.00;97954.53;6188643;28;97081;-57
2023/12/26 11:19:45;;;;;;;;;3.00;3.00;;;;;18.19;100.00;97938.66;6195476;28;97559;-57
2023/12/26 11:22:50;;;;;;;;;3.00;3.00;;;;;18.47;100.00;97955.22;6194627;28;96512;-57
2023/12/26 11:25:53;;;;;;;;;3.00;3.00;;;;;18.83;100.00;97948.09;6188576;28;96645;-57
2023/12/26 11:28:57;;;;;;;;;2.20;2.20;;;;;18.78;100.00;97967.31;6194125;28;96785;-57
2023/12/26 11:31:59;;;;;;;;;2.40;2.40;;;;;18.63;100.00;97973.00;6194762;28;96986;-58
2023/12/26 11:35:02;;;;;;;;;3.60;3.60;;;;;18.41;100.00;97965.38;6192552;28;98724;-58
2023/12/26 11:38:06;;;;;;;;;2.50;2.50;;;;;18.14;100.00;97976.09;6188201;28;96250;-58
2023/12/26 11:41:12;;;;;;;;;1.00;1.00;;;;;18.08;100.00;97971.84;6194638;28;96755;-57
2023/12/26 11:44:16;;;;;;;;;4.00;2.60;;;;;17.80;100.00;97978.16;6194001;28;96455;-57
2023/12/26 11:47:19;;;;;;;;;3.00;3.00;;;;;17.54;100.00;97989.34;6195674;28;96525;-57
2023/12/26 11:50:21;;;;;;;;;3.40;3.40;;;;;17.38;100.00;97993.31;6187420;28;96374;-57
2023/12/26 11:53:26;;;;;;;;;3.00;3.00;;;;;17.24;100.00;97998.59;6193658;28;96217;-57
2023/12/26 11:56:28;;;;;;;;;2.00;2.00;;;;;17.04;100.00;97998.78;6194647;28;96512;-57
2023/12/26 11:59:31;;;;;;;;;4.50;4.50;;;;;16.99;100.00;98011.63;6194657;28;96434;-57
2023/12/26 12:02:33;;;;;;;;;3.00;3.00;;;;;16.74;100.00;98005.25;6197290;28;96324;-58
2023/12/26 12:05:37;;;;;;;;;4.00;4.00;;;;;16.82;100.00;98004.66;6217077;28;96328;-57
2023/12/26 12:09:02;;;;;;;;;3.00;3.00;;;;;16.63;100.00;98017.31;6218776;28;96442;-57
2023/12/26 12:12:06;;;;;;;;;4.00;4.00;;;;;16.39;100.00;98014.41;6213942;28;97630;-57
2023/12/26 12:15:10;;;;;;;;;4.00;4.00;;;;;16.28;100.00;98014.75;6218649;28;96284;-57
2023/12/26 12:18:19;;;;;;;;;4.00;3.20;;;;;16.21;100.00;98022.41;6217769;28;96279;-58
2023/12/26 12:21:22;;;;;;;;;4.00;3.00;;;;;16.23;100.00;98034.63;6214575;28;96532;-56
2023/12/26 12:24:27;;;;;;;;;2.00;2.00;;;;;16.13;100.00;98023.78;6216246;28;96283;-58
2023/12/26 12:27:29;;;;;;;;;4.00;3.60;;;;;16.16;100.00;98025.97;6216776;28;96367;-57
2023/12/26 12:30:32;;;;;;;;;4.00;4.00;;;;;16.20;100.00;98021.59;6215339;28;96772;-59
2023/12/26 12:33:34;;;;;;;;;3.00;3.00;;;;;16.28;100.00;98034.59;6200110;28;98601;-57
2023/12/26 12:36:38;;;;;;;;;4.00;4.00;;;;;16.15;100.00;98037.09;6215897;28;96939;-58
2023/12/26 12:39:43;;;;;;;;;3.00;2.60;;;;;16.09;100.00;98049.91;6216416;28;96549;-57
2023/12/26 12:42:46;;;;;;;;;4.80;4.80;;;;;16.06;100.00;98044.22;6215389;28;97095;-57
2023/12/26 12:45:49;;;;;;;;;3.20;3.20;;;;;15.99;100.00;98052.66;6200154;28;96699;-57
2023/12/26 12:48:52;;;;;;;;;4.00;4.00;;;;;15.95;100.00;98063.28;6196615;28;96306;-57
2023/12/26 12:51:54;;;;;;;;;4.60;4.00;;;;;15.83;100.00;98056.53;6215917;28;96381;-57
2023/12/26 12:54:58;;;;;;;;;3.00;3.00;;;;;15.79;100.00;98044.56;6211987;28;96726;-57
2023/12/26 12:58:01;;;;;;;;;3.00;2.00;;;;;15.82;100.00;98046.75;6211648;28;96628;-58
2023/12/26 13:01:05;;;;;;;;;3.00;3.00;;;;;15.73;100.00;98048.41;6213534;28;96621;-57
2023/12/26 13:04:07;;;;;;;;;5.00;4.00;;;;;15.73;100.00;98043.78;6212276;28;96538;-57
2023/12/26 13:07:11;;;;;;;;;3.00;3.00;;;;;15.65;100.00;98048.94;6207164;28;96252;-58
2023/12/26 13:10:15;;;;;;;;;3.00;3.00;;;;;15.66;100.00;98050.56;6208538;28;96412;-57
2023/12/26 13:13:18;;;;;;;;;4.00;2.80;;;;;15.66;100.00;98053.28;6212510;28;96646;-56
2023/12/26 13:16:20;;;;;;;;;5.00;4.00;;;;;15.56;100.00;98054.94;6207020;28;96503;-57
2023/12/26 13:19:23;;;;;;;;;3.40;3.40;;;;;15.67;100.00;98068.50;6212253;28;96529;-58
2023/12/26 13:22:25;;;;;;;;;4.60;4.60;;;;;15.54;100.00;98072.63;6217744;28;96874;-58
2023/12/26 13:25:30;;;;;;;;;4.00;3.80;;;;;15.63;100.00;98062.00;6221639;28;96838;-57
2023/12/26 13:28:39;;;;;;;;;4.00;3.25;;;;;15.64;100.00;98078.00;6210785;28;96836;-57
2023/12/26 13:31:42;;;;;;;;;2.00;2.00;;;;;15.60;100.00;98071.50;6224654;28;96621;-56
2023/12/26 13:34:47;;;;;;;;;4.00;4.00;;;;;15.59;100.00;98065.25;6230739;28;96316;-57
2023/12/26 13:37:50;;;;;;;;;3.00;3.00;;;;;15.57;100.00;98080.19;6229324;28;96303;-58
2023/12/26 13:41:00;;;;;;;;;5.00;5.00;;;;;15.55;100.00;98072.31;6216412;28;96609;-57
2023/12/26 13:44:03;;;;;;;;;4.00;4.00;;;;;15.46;100.00;98092.13;6219280;28;96373;-56
2023/12/26 13:47:05;;;;;;;;;3.75;3.75;;;;;15.54;100.00;98091.63;6222820;28;96567;-57
2023/12/26 13:50:08;;;;;;;;;4.00;3.60;;;;;15.42;100.00;98102.72;6228755;28;96478;-57
2023/12/26 13:53:10;;;;;;;;;2.20;2.20;;;;;15.40;100.00;98101.34;6228672;28;96231;-57
2023/12/26 13:56:15;;;;;;;;;4.00;4.00;;;;;15.31;100.00;98111.13;6225384;28;96631;-57
2023/12/26 13:59:19;;;;;;;;;3.00;3.00;;;;;15.36;100.00;98101.09;6208565;28;97585;-56
2023/12/26 14:02:22;;;;;;;;;4.20;4.00;;;;;15.30;100.00;98101.34;6219176;28;96854;-56
2023/12/26 14:05:25;;;;;;;;;3.00;3.00;;;;;15.17;100.00;98110.84;6220178;28;96537;-56
2023/12/26 14:08:29;;;;;;;;;4.40;4.00;;;;;15.24;100.00;98124.19;6227622;28;96432;-56
2023/12/26 14:11:33;;;;;;;;;5.00;5.00;;;;;15.27;100.00;98113.59;6225979;28;97309;-56
2023/12/26 14:14:36;;;;;;;;;4.00;4.00;;;;;15.29;100.00;98126.91;6218120;28;96387;-57